Terminal Aerodrome Forecast
Issued by NWS Wilmington, NC

Home | Current Version | Previous Version | Text Only | Print | Product List | Glossary On
Versions: 1 2 3 4 5 6 7 8 9 10 11 12 13 14 15 16 17 18 19 20 21 22 23 24
000
FTUS42 KILM 200532
TAFFLO
TAF
KFLO 200532Z 2006/2106 05002KT 3SM BR OVC003
     FM200800 00000KT 1SM BR OVC003
      TEMPO 2008/2012 1/2SM FG
     FM201300 17006KT 4SM BR BKN015 BKN035
     FM201800 18006KT P6SM VCSH BKN035
     FM210100 16004KT P6SM SCT060=

USA.gov is the U.S. government's official web portal to all federal, state and local government web resources and services.